createdAt,value
2022-09-18T00:00:35.443Z,9.82
2022-09-18T00:03:37.198Z,9.91
2022-09-18T00:06:41.248Z,9.83
2022-09-18T00:09:43.587Z,10.06
2022-09-18T00:12:44.973Z,9.91
2022-09-18T00:15:54.448Z,10.03
2022-09-18T00:18:56.507Z,10.09
2022-09-18T00:21:57.929Z,10.14
2022-09-18T00:24:59.324Z,10.18
2022-09-18T00:28:00.773Z,10.07
2022-09-18T00:31:26.466Z,9.97
2022-09-18T00:34:28.077Z,10.05
2022-09-18T00:37:29.517Z,9.91
2022-09-18T00:40:31.046Z,10.24
2022-09-18T00:43:35.269Z,9.95
2022-09-18T00:46:37.358Z,9.95
2022-09-18T00:49:50.915Z,9.99
2022-09-18T00:53:06.055Z,9.92
2022-09-18T00:56:09.522Z,9.97
2022-09-18T00:59:13.908Z,10.12
2022-09-18T01:02:15.481Z,10.18
2022-09-18T01:05:23.269Z,10.08
2022-09-18T01:08:44.111Z,10.15
2022-09-18T01:11:49.427Z,10.25
2022-09-18T01:15:00.804Z,10.28
2022-09-18T01:18:28.897Z,10.38
2022-09-18T01:21:38.291Z,10.23
2022-09-18T01:24:55.244Z,10.07
2022-09-18T01:28:15.629Z,9.82
2022-09-18T01:31:27.783Z,9.85
2022-09-18T01:34:47.799Z,9.85
2022-09-18T01:38:03.702Z,9.92
2022-09-18T01:41:12.610Z,9.98
2022-09-18T01:44:18.810Z,10.09
2022-09-18T01:47:24.013Z,10.06
2022-09-18T01:50:32.556Z,10.15
2022-09-18T01:53:39.748Z,10.27
2022-09-18T01:57:07.883Z,10.22
2022-09-18T02:00:12.338Z,10.39
2022-09-18T02:03:27.112Z,10.30
2022-09-18T02:06:41.909Z,10.50
2022-09-18T02:09:44.419Z,10.29
2022-09-18T02:12:48.309Z,10.15
2022-09-18T02:15:51.798Z,10.16
2022-09-18T02:19:01.124Z,10.09
2022-09-18T02:22:07.176Z,10.09
2022-09-18T02:25:11.331Z,10.05
2022-09-18T02:28:19.094Z,10.18
2022-09-18T02:31:21.143Z,10.03
2022-09-18T02:34:22.638Z,10.25
2022-09-18T02:37:42.858Z,10.19
2022-09-18T02:41:29.442Z,10.09
2022-09-18T02:44:39.974Z,9.95
2022-09-18T02:47:53.599Z,10.02
2022-09-18T02:51:30.925Z,10.05
2022-09-18T02:54:37.823Z,10.10
2022-09-18T02:58:03.081Z,10.01
2022-09-18T03:01:07.852Z,9.68
2022-09-18T03:04:13.815Z,9.82
2022-09-18T03:07:32.761Z,9.63
2022-09-18T03:10:34.635Z,9.82
2022-09-18T03:13:36.774Z,9.58
2022-09-18T03:16:38.646Z,9.69
2022-09-18T03:19:40.070Z,9.85
2022-09-18T03:22:42.044Z,9.80
2022-09-18T03:25:45.330Z,9.62
2022-09-18T03:28:48.195Z,9.68
2022-09-18T03:31:49.651Z,9.72
2022-09-18T03:34:52.525Z,9.78
2022-09-18T03:37:55.802Z,9.63
2022-09-18T03:41:00.683Z,9.61
2022-09-18T03:44:03.209Z,9.88
2022-09-18T03:47:04.884Z,9.73
2022-09-18T03:50:06.966Z,9.71
2022-09-18T03:53:09.747Z,9.68
2022-09-18T03:56:30.058Z,9.77
2022-09-18T03:59:50.897Z,9.82
2022-09-18T04:03:12.385Z,9.76
2022-09-18T04:06:36.782Z,9.71
2022-09-18T04:09:56.586Z,9.69
2022-09-18T04:12:58.003Z,9.76
2022-09-18T04:16:05.159Z,9.76
2022-09-18T04:19:06.657Z,9.93
2022-09-18T04:22:08.176Z,9.82
2022-09-18T04:25:11.854Z,9.67
2022-09-18T04:28:14.091Z,9.75
2022-09-18T04:31:19.099Z,9.90
2022-09-18T04:34:21.542Z,9.82
2022-09-18T04:37:22.995Z,9.76
2022-09-18T04:40:26.976Z,9.69
2022-09-18T04:43:28.894Z,9.65
2022-09-18T04:46:30.496Z,9.68
2022-09-18T04:49:32.058Z,9.59
2022-09-18T04:52:35.921Z,9.80
2022-09-18T04:55:39.362Z,9.82
2022-09-18T04:58:44.222Z,9.63
2022-09-18T05:01:46.633Z,9.67
2022-09-18T05:04:49.486Z,9.84
2022-09-18T05:08:02.501Z,9.81
2022-09-18T05:11:04.878Z,9.84
2022-09-18T05:14:09.748Z,9.81
2022-09-18T05:17:11.570Z,9.71
2022-09-18T05:20:16.620Z,9.87
2022-09-18T05:23:18.230Z,9.72
2022-09-18T05:26:19.667Z,9.67
2022-09-18T05:29:21.129Z,9.80
2022-09-18T05:32:24.444Z,9.84
2022-09-18T05:35:28.385Z,9.80
2022-09-18T05:38:29.826Z,9.78
2022-09-18T05:41:31.245Z,9.72
2022-09-18T05:44:36.627Z,9.75
2022-09-18T05:48:01.801Z,9.82
2022-09-18T05:51:05.130Z,9.89
2022-09-18T05:54:06.678Z,9.80
2022-09-18T05:57:14.170Z,9.76
2022-09-18T06:00:15.737Z,9.75
2022-09-18T06:03:21.415Z,9.68
2022-09-18T06:06:22.931Z,9.72
2022-09-18T06:09:24.365Z,9.71
2022-09-18T06:12:25.779Z,9.80
2022-09-18T06:15:27.237Z,9.87
2022-09-18T06:18:28.687Z,9.90
2022-09-18T06:21:32.472Z,9.76
2022-09-18T06:24:34.545Z,9.92
2022-09-18T06:27:41.328Z,9.87
2022-09-18T06:30:42.884Z,9.92
2022-09-18T06:33:44.666Z,9.87
2022-09-18T06:36:47.547Z,9.82
2022-09-18T06:39:55.678Z,9.91
2022-09-18T06:43:11.674Z,9.73
2022-09-18T06:46:48.351Z,9.80
2022-09-18T06:50:03.918Z,9.73
2022-09-18T06:53:10.235Z,9.75
2022-09-18T06:56:16.330Z,9.80
2022-09-18T06:59:17.926Z,10.14
2022-09-18T07:02:19.927Z,10.29
2022-09-18T07:05:31.357Z,10.17
2022-09-18T07:08:33.082Z,10.14
2022-09-18T07:11:44.943Z,10.10
2022-09-18T07:14:46.373Z,10.12
2022-09-18T07:17:49.338Z,10.15
2022-09-18T07:20:53.679Z,10.14
2022-09-18T07:24:06.326Z,10.26
2022-09-18T07:27:07.739Z,10.35
2022-09-18T07:30:11.063Z,10.41
2022-09-18T07:33:12.635Z,10.37
2022-09-18T07:36:20.944Z,10.42
2022-09-18T07:39:23.726Z,10.36
2022-09-18T07:43:05.295Z,10.53
2022-09-18T07:46:08.122Z,10.46
2022-09-18T07:49:09.615Z,10.48
2022-09-18T07:52:11.707Z,10.53
2022-09-18T07:55:25.381Z,10.50
2022-09-18T07:58:28.072Z,10.69
2022-09-18T08:01:40.191Z,10.68
2022-09-18T08:04:41.721Z,10.78
2022-09-18T08:07:51.849Z,10.80
2022-09-18T08:11:08.704Z,10.86
2022-09-18T08:14:29.225Z,10.89
2022-09-18T08:17:53.919Z,10.94
2022-09-18T08:21:12.075Z,10.94
2022-09-18T08:24:17.922Z,10.87
2022-09-18T08:27:20.601Z,10.92
2022-09-18T08:30:22.064Z,10.85
2022-09-18T08:33:28.587Z,10.79
2022-09-18T08:36:30.061Z,10.95
2022-09-18T08:39:48.684Z,11.05
2022-09-18T08:43:29.807Z,10.97
2022-09-18T08:46:49.509Z,11.17
2022-09-18T08:49:57.714Z,11.13
2022-09-18T08:53:05.673Z,11.23
2022-09-18T08:56:24.640Z,11.12
2022-09-18T08:59:54.939Z,11.06
2022-09-18T09:03:09.234Z,10.93
2022-09-18T09:06:19.635Z,10.87
2022-09-18T09:09:33.297Z,10.82
2022-09-18T09:12:56.433Z,10.77
2022-09-18T09:16:05.309Z,10.92
2022-09-18T09:19:28.748Z,10.91
2022-09-18T09:22:45.867Z,10.82
2022-09-18T09:25:56.692Z,10.78
2022-09-18T09:29:34.876Z,10.94
2022-09-18T09:33:02.749Z,11.02
2022-09-18T09:36:19.018Z,10.97
2022-09-18T09:39:32.524Z,11.10
2022-09-18T09:42:41.868Z,10.95
2022-09-18T09:45:50.255Z,11.04
2022-09-18T09:49:01.172Z,11.12
2022-09-18T09:52:09.413Z,11.23
2022-09-18T09:55:14.693Z,11.35
2022-09-18T09:58:27.894Z,11.34
2022-09-18T10:01:38.149Z,11.50
2022-09-18T10:04:58.863Z,11.64
2022-09-18T10:08:32.225Z,11.72
2022-09-18T10:11:37.649Z,11.68
2022-09-18T10:14:41.950Z,11.88
2022-09-18T10:17:45.058Z,11.97
2022-09-18T10:20:50.235Z,12.01
2022-09-18T10:24:14.405Z,12.05
2022-09-18T10:27:17.246Z,12.22
2022-09-18T10:30:18.788Z,12.30
2022-09-18T10:33:42.697Z,12.49
2022-09-18T10:36:50.715Z,12.59
2022-09-18T10:39:57.384Z,12.46
2022-09-18T10:43:00.391Z,12.41
2022-09-18T10:46:03.053Z,12.53
2022-09-18T10:49:56.825Z,12.69
2022-09-18T10:53:42.358Z,12.80
2022-09-18T10:56:50.246Z,12.53
2022-09-18T10:59:52.650Z,12.59
2022-09-18T11:02:59.344Z,12.47
2022-09-18T11:06:10.614Z,12.32
2022-09-18T11:09:18.372Z,12.23
2022-09-18T11:12:27.183Z,12.25
2022-09-18T11:15:31.831Z,12.43
2022-09-18T11:18:33.433Z,12.68
2022-09-18T11:21:45.028Z,12.90
2022-09-18T11:24:47.567Z,13.22
2022-09-18T11:27:55.738Z,13.36
2022-09-18T11:31:16.916Z,13.45
2022-09-18T11:34:38.331Z,13.49
2022-09-18T11:37:55.641Z,13.30
2022-09-18T11:41:01.559Z,13.37
2022-09-18T11:44:21.943Z,13.21
2022-09-18T11:47:43.111Z,13.18
2022-09-18T11:50:45.416Z,13.12
2022-09-18T11:53:55.216Z,12.77
2022-09-18T11:57:02.201Z,12.64
2022-09-18T12:00:21.530Z,12.82
2022-09-18T12:03:34.106Z,12.64
2022-09-18T12:06:48.172Z,12.57
2022-09-18T12:09:56.196Z,12.56
2022-09-18T12:13:32.269Z,12.63
2022-09-18T12:16:52.307Z,12.69
2022-09-18T12:20:03.984Z,12.76
2022-09-18T12:23:12.978Z,12.73
2022-09-18T12:26:44.415Z,12.85
2022-09-18T12:30:09.260Z,12.83
2022-09-18T12:33:34.359Z,12.81
2022-09-18T12:36:45.556Z,12.93
2022-09-18T12:39:55.898Z,12.90
2022-09-18T12:43:12.709Z,13.09
2022-09-18T12:46:17.106Z,13.29
2022-09-18T12:49:37.134Z,13.43
2022-09-18T12:53:00.296Z,13.57
2022-09-18T12:56:34.198Z,13.73
2022-09-18T12:59:57.940Z,13.68
2022-09-18T13:03:26.661Z,13.90
2022-09-18T13:06:46.893Z,13.66
2022-09-18T13:10:06.601Z,13.77
2022-09-18T13:13:42.682Z,13.55
2022-09-18T13:16:54.692Z,13.70
2022-09-18T13:20:03.059Z,13.68
2022-09-18T13:23:06.458Z,13.64
2022-09-18T13:26:12.937Z,13.49
2022-09-18T13:29:45.360Z,13.37
2022-09-18T13:32:46.774Z,13.32
2022-09-18T13:35:55.688Z,13.36
2022-09-18T13:39:01.747Z,13.47
2022-09-18T13:42:03.341Z,13.32
2022-09-18T13:45:21.287Z,13.26
2022-09-18T13:48:34.261Z,13.32
2022-09-18T13:51:37.175Z,13.27
2022-09-18T13:54:39.438Z,13.20
2022-09-18T13:57:42.206Z,13.15
2022-09-18T14:00:43.662Z,13.08
2022-09-18T14:03:45.054Z,13.07
2022-09-18T14:06:46.621Z,13.08
2022-09-18T14:09:55.587Z,13.06
2022-09-18T14:13:27.063Z,12.78
2022-09-18T14:16:32.938Z,13.01
2022-09-18T14:19:36.126Z,13.00
2022-09-18T14:22:40.247Z,13.05
2022-09-18T14:25:45.458Z,12.93
2022-09-18T14:28:48.380Z,12.95
2022-09-18T14:31:56.656Z,13.00
2022-09-18T14:35:17.013Z,13.04
2022-09-18T14:38:26.330Z,12.87
2022-09-18T14:41:35.233Z,12.90
2022-09-18T14:44:38.017Z,12.90
2022-09-18T14:47:41.842Z,12.89
2022-09-18T14:50:43.243Z,12.86
2022-09-18T14:53:49.784Z,12.88
2022-09-18T14:56:53.685Z,12.82
2022-09-18T14:59:58.388Z,12.83
2022-09-18T15:03:14.574Z,12.89
2022-09-18T15:06:21.487Z,12.77
2022-09-18T15:09:28.530Z,12.86
2022-09-18T15:12:32.548Z,12.85
2022-09-18T15:15:39.444Z,12.84
2022-09-18T15:18:42.454Z,12.84
2022-09-18T15:21:47.571Z,12.79
2022-09-18T15:24:49.402Z,12.74
2022-09-18T15:27:53.694Z,12.75
2022-09-18T15:30:59.188Z,12.74
2022-09-18T15:34:14.592Z,12.70
2022-09-18T15:37:22.381Z,12.61
2022-09-18T15:40:30.623Z,12.55
2022-09-18T15:43:33.613Z,12.61
2022-09-18T15:46:37.066Z,12.54
2022-09-18T15:49:38.491Z,12.46
2022-09-18T15:52:47.178Z,12.47
2022-09-18T15:55:58.778Z,12.35
2022-09-18T15:59:03.900Z,12.35
2022-09-18T16:02:21.882Z,12.25
2022-09-18T16:05:24.478Z,12.32
2022-09-18T16:08:29.610Z,12.32
2022-09-18T16:11:38.494Z,12.22
2022-09-18T16:14:45.641Z,12.23
2022-09-18T16:17:56.632Z,12.27
2022-09-18T16:21:08.698Z,12.27
2022-09-18T16:24:28.264Z,12.23
2022-09-18T16:27:29.649Z,12.20
2022-09-18T16:30:31.031Z,12.19
2022-09-18T16:33:33.853Z,12.13
2022-09-18T16:36:41.412Z,12.10
2022-09-18T16:39:42.881Z,12.10
2022-09-18T16:42:44.644Z,12.06
2022-09-18T16:45:50.704Z,12.08
2022-09-18T16:48:54.765Z,12.09
2022-09-18T16:51:57.573Z,12.03
2022-09-18T16:54:58.924Z,12.04
2022-09-18T16:58:01.217Z,11.99
2022-09-18T17:01:05.086Z,11.94
2022-09-18T17:04:07.042Z,11.96
2022-09-18T17:07:08.570Z,11.90
2022-09-18T17:10:13.340Z,11.89
2022-09-18T17:13:14.982Z,11.84
2022-09-18T17:16:35.266Z,11.84
2022-09-18T17:19:40.864Z,11.81
2022-09-18T17:22:42.268Z,11.75
2022-09-18T17:25:44.770Z,11.67
2022-09-18T17:28:46.211Z,11.67
2022-09-18T17:31:47.684Z,11.67
2022-09-18T17:34:49.106Z,11.61
2022-09-18T17:37:51.617Z,11.64
2022-09-18T17:40:58.086Z,11.63
2022-09-18T17:43:59.923Z,11.55
2022-09-18T17:47:01.495Z,11.54
2022-09-18T17:50:05.093Z,11.51
2022-09-18T17:53:06.522Z,11.50
2022-09-18T17:56:20.011Z,11.49
2022-09-18T17:59:21.386Z,11.49
2022-09-18T18:02:22.863Z,11.50
2022-09-18T18:05:24.355Z,11.47
2022-09-18T18:08:27.789Z,11.45
2022-09-18T18:11:29.521Z,11.48
2022-09-18T18:14:31.590Z,11.43
2022-09-18T18:17:35.744Z,11.43
2022-09-18T18:20:37.808Z,11.44
2022-09-18T18:23:39.209Z,11.43
2022-09-18T18:26:41.146Z,11.42
2022-09-18T18:29:42.574Z,11.42
2022-09-18T18:32:44.173Z,11.44
2022-09-18T18:35:45.717Z,11.44
2022-09-18T18:38:49.609Z,11.43
2022-09-18T18:41:51.130Z,11.42
2022-09-18T18:44:52.580Z,11.43
2022-09-18T18:47:55.633Z,11.41
2022-09-18T18:50:58.062Z,11.39
2022-09-18T18:54:03.619Z,11.35
2022-09-18T18:57:05.338Z,11.33
2022-09-18T19:00:08.213Z,11.32
2022-09-18T19:03:09.926Z,11.22
2022-09-18T19:06:11.634Z,11.34
2022-09-18T19:09:24.658Z,11.28
2022-09-18T19:12:26.629Z,11.30
2022-09-18T19:15:28.189Z,11.35
2022-09-18T19:18:29.723Z,11.32
2022-09-18T19:21:31.171Z,11.34
2022-09-18T19:24:32.702Z,11.30
2022-09-18T19:27:34.600Z,11.31
2022-09-18T19:30:39.099Z,11.29
2022-09-18T19:33:40.825Z,11.37
2022-09-18T19:36:48.903Z,11.30
2022-09-18T19:39:50.397Z,11.32
2022-09-18T19:42:58.818Z,11.33
2022-09-18T19:46:01.359Z,11.35
2022-09-18T19:49:03.036Z,11.35
2022-09-18T19:52:15.208Z,11.28
2022-09-18T19:55:18.429Z,11.28
2022-09-18T19:58:20.273Z,11.29
2022-09-18T20:01:21.779Z,11.21
2022-09-18T20:04:23.419Z,11.20
2022-09-18T20:07:25.234Z,11.17
2022-09-18T20:10:27.281Z,11.20
2022-09-18T20:13:28.820Z,11.20
2022-09-18T20:16:30.428Z,11.22
2022-09-18T20:19:32.281Z,11.18
2022-09-18T20:22:37.226Z,11.17
2022-09-18T20:25:38.972Z,11.12
2022-09-18T20:28:40.497Z,11.15
2022-09-18T20:31:42.428Z,11.12
2022-09-18T20:34:47.791Z,11.05
2022-09-18T20:37:49.474Z,10.94
2022-09-18T20:41:06.733Z,10.93
2022-09-18T20:44:09.001Z,11.05
2022-09-18T20:47:10.436Z,11.01
2022-09-18T20:50:13.494Z,10.86
2022-09-18T20:53:14.930Z,10.75
2022-09-18T20:56:21.493Z,10.57
2022-09-18T20:59:24.761Z,10.52
2022-09-18T21:02:26.283Z,10.68
2022-09-18T21:05:27.745Z,10.63
2022-09-18T21:08:29.760Z,10.61
2022-09-18T21:11:34.419Z,10.47
2022-09-18T21:14:36.813Z,10.55
2022-09-18T21:17:38.454Z,10.51
2022-09-18T21:20:40.706Z,10.62
2022-09-18T21:23:56.165Z,10.60
2022-09-18T21:26:57.899Z,10.52
2022-09-18T21:29:59.273Z,10.59
2022-09-18T21:33:01.739Z,10.55
2022-09-18T21:36:03.684Z,10.47
2022-09-18T21:39:09.662Z,10.31
2022-09-18T21:42:11.337Z,10.56
2022-09-18T21:45:20.548Z,10.52
2022-09-18T21:48:23.314Z,10.48
2022-09-18T21:51:24.698Z,10.44
2022-09-18T21:54:27.078Z,10.43
2022-09-18T21:57:28.553Z,10.43
2022-09-18T22:00:30.035Z,10.50
2022-09-18T22:03:31.738Z,10.34
2022-09-18T22:06:35.868Z,10.23
2022-09-18T22:09:38.104Z,10.28
2022-09-18T22:12:39.654Z,10.38
2022-09-18T22:15:41.050Z,10.39
2022-09-18T22:18:42.433Z,10.49
2022-09-18T22:21:46.391Z,10.47
2022-09-18T22:24:47.913Z,10.36
2022-09-18T22:27:49.356Z,10.39
2022-09-18T22:30:50.822Z,10.35
2022-09-18T22:33:57.603Z,10.32
2022-09-18T22:37:00.051Z,10.25
2022-09-18T22:40:02.038Z,10.13
2022-09-18T22:43:03.652Z,10.17
2022-09-18T22:46:14.023Z,10.12
2022-09-18T22:49:17.006Z,10.12
2022-09-18T22:52:18.530Z,10.14
2022-09-18T22:55:21.611Z,10.03
2022-09-18T22:58:23.012Z,10.03
2022-09-18T23:01:28.892Z,10.14
2022-09-18T23:04:33.394Z,10.07
2022-09-18T23:07:35.826Z,10.10
2022-09-18T23:10:37.237Z,10.06
2022-09-18T23:13:40.405Z,10.10
2022-09-18T23:16:41.848Z,9.95
2022-09-18T23:19:43.692Z,9.98
2022-09-18T23:22:45.129Z,9.71
2022-09-18T23:25:46.512Z,9.79
2022-09-18T23:28:47.873Z,9.32
2022-09-18T23:31:52.723Z,9.01
2022-09-18T23:34:55.074Z,8.60
2022-09-18T23:37:56.484Z,8.43
2022-09-18T23:41:02.138Z,8.42
2022-09-18T23:44:05.221Z,8.22
2022-09-18T23:47:06.804Z,7.93
2022-09-18T23:50:08.442Z,7.94
2022-09-18T23:53:09.830Z,7.82
2022-09-18T23:56:13.440Z,7.78
2022-09-18T23:59:18.650Z,7.86
